Pagina principale
METAR-TAF:

METAR-TAF

Aeroporti :

Lugano, Svizzera

Aeroporto di Lugano-Agno

latitudine: 46-00N, longitudine: 008-58E, altezza: 273 m

Osservazione

Il bollettino è stato emesso 10 minuti fa, alle 13:50 UTC
Vento 7 kt da sud
Temperature 11°C
Umidità 62%
Pressione 1009 hPa
Visibilità 10 km o più
Poco nuvoloso ad un'altezza di 3000 ft
Nubi sparse ad un'altezza di 8000 ft

METAR: LSZA 241350Z 19007KT 9999 FEW030 SCT080 11/04 Q1009 NOSIG

Ora: 15:00 (14:00 UTC)

Previsione

Il bollettino è stato emesso 2 ore e 35 minuti fa, alle 11:25 UTC
Previsione valida dal 24 alle 12 UTC al 24 alle 21 UTC
Vento 3 kt da direzioni variabili
Visibilità: 6000 m
Poco nuvoloso ad un'altezza di 1400 ft
Nuvoloso ad un'altezza di 6000 ft
Evoluzione graduale
dal 24 alle 18 UTC al 24 alle 21 UTC
Visibilità: 4000 m
pioggia

TAF: LSZA 241125Z 2412/2421 VRB03KT 6000 FEW014 BKN060 BECMG 2418/2421 4000 RA

Osservazioni e previsioni meteorologiche di più di 4000 aeroporti (messaggi METAR e TAF).

Le stazioni disponibili sono rappresentate dai dischi gialli e rossi sulla carta.

Puntare il mouse per vedere il nome della stazione.

Clicca sopra per visualizzare le osservazioni e previsioni meteorologiche.

Per cambiare la mappa : fare clic sui pulsanti verdi con una croce nera per ingrandire, il pulsante verde con un trattino per diminuire, o sulla freccia verde per le mappe adiacenti.


METAR-TAF: